Blowing Sand Mountains, Nevada Weather observations

Data are for observation ending at time listed.
 Day   Time    Ave.   Ave.  Ave.  Vector   Max.   Stn.    Total    Solar   Ave.  
  of    of     Air    Rel.  Wind   Wind    Wind   Baro.  Precip.   Rad.    Soil  
Year   Day     Temp.  Hum.  Speed  Dir.    Gust   Pres.                    Temp. 
2016   (PST)    F      %     mph   deg.    mph     mb.     in.     W/m2     F   
------------------------------------------------------------------------------
  37   16:30   41.1    65    3.8   239      4.7    893.3     0.00     149     36.0
  37   16:40   40.4    65    3.1   247      4.0    893.3     0.00     117     36.1
  37   16:50   39.6    66    2.4   261      3.5    893.4     0.00      67     36.3
  37   17:00   39.2    66    2.3   271      3.7    893.4     0.00      45     36.4
  37   17:10   38.3    66    2.4   258      3.4    893.3     0.00      22     36.5
  37   17:20   36.7    67    2.2   218      3.3    893.3     0.00       7     36.6
  37   17:30   34.9    69    2.2   219      3.1    893.3     0.00       2     36.7
  37   17:40   33.5    70    2.5   176      3.5    893.2     0.00       1     36.8
  37   17:50   32.2    72    0.9   140      2.5    893.3     0.00       0     36.8
  37   18:00   31.2    74    1.9   129      2.9    893.4     0.00       0     36.9
  37   18:10   30.5    76    2.1   119      2.9    893.4     0.00       0     37.0
  37   18:20   30.0    78    2.1   138      2.9    893.5     0.00       0     37.0
  37   18:30   29.1    79    1.4   168      2.7    893.6     0.00       0     37.1
  37   18:40   28.1    80    2.0   147      3.6    893.7     0.00       0     37.2
  37   18:50   27.0    82    3.7   125      4.7    893.8     0.00       0     37.3
  37   19:00   26.1    83    2.6   135      3.9    893.8     0.00       0     37.3
  37   19:10   25.6    84    3.6   139      5.3    893.8     0.00       0     37.4
  37   19:20   25.2    85    2.1   102      4.1    893.9     0.00       0     37.4
  37   19:30   24.6    86    0.0     0      0.0    893.9     0.00       0     37.5
  37   19:40   23.9    87    0.0     0      0.0    894.0     0.00       0     37.5
  37   19:50   23.6    88    0.0     0      0.0    894.1     0.00       0     37.6
  37   20:00   23.3    89    0.0     0      0.0    894.1     0.00       0     37.6
  37   20:10   22.9    89    0.0     0      0.0    894.1     0.00       0     37.6
  37   20:20   22.4    90    0.0     0      0.0    894.1     0.00       0     37.7
  37   20:30   21.7    91    0.0     0      0.0    894.2     0.00       0     37.7
  37   20:40   21.1    92    0.0     0      0.0    894.3     0.00       0     37.7
  37   20:50   20.9    93    0.0     0      0.0    894.4     0.00       0     37.7
  37   21:00   20.7    94    0.0     0      0.0    894.5     0.00       0     37.7
  37   21:10   20.5    95    0.0     0      0.0    894.5     0.00       0     37.7
  37   21:20   20.7    97    0.0     0      0.0    894.6     0.00       0     37.7
  37   21:30   20.2    97    0.2   185      2.4    894.8     0.00       0     37.7
  37   21:40   19.6    99    2.5   149      3.6    894.9     0.00       0     37.7
  37   21:50   19.3   100    0.0   147      0.5    894.9     0.00       0     37.7
  37   22:00   19.0   100    0.0     0      0.0    894.9     0.00       0     37.7
  37   22:10   18.4   100    0.0     0      0.0    894.9     0.00       0     37.7
  37   22:20   17.9   100    0.8   148      3.3    894.9     0.00       0     37.7
  37   22:30   17.4   100    1.8   143      2.9    894.9     0.00       0     37.7
  37   22:40   16.8   100    2.1   129      2.9    894.9     0.00       0     37.7
  37   22:50   16.3   105    0.7   140      2.0    895.0     0.00       0     37.7
  37   23:00   15.9   110    0.0     0      0.0    895.1     0.00       0     37.7
  37   23:10   15.3   113    0.0     0      0.0    895.0     0.00       0     37.7
  37   23:20   14.8   116    0.0     0      0.0    895.0     0.00       0     37.6
  37   23:30   13.9   117    0.0     0      0.0    895.0     0.00       0     37.6
  37   23:40   12.6   116    0.0     0      0.0    895.0     0.00       0     37.6
  37   23:50   12.0   118    0.0     0      0.0    895.0     0.00       0     37.6
  38    0:00   11.6   121    0.0     0      0.0    895.0     0.00       0     37.5
  38    0:10   11.4   124    0.0     0      0.0    895.0     0.00       0     37.5
  38    0:20   11.1   127    0.0     0      0.0    895.0     0.00       0     37.5
  38    0:30   10.7   131    0.0     0      0.0    895.0     0.00       0     37.5
  38    0:40   10.4   133    0.0     0      0.0    895.1     0.00       0     37.5
  38    0:50    9.6   134    0.0     0      0.0    895.2     0.00       0     37.4
  38    1:00    9.0   135    0.0     0      0.0    895.1     0.00       0     37.4
  38    1:10    8.6   140    0.0     0      0.0    895.1     0.00       0     37.4
  38    1:20    8.1   140    1.8   246      3.7    895.3     0.00       0     37.4
  38    1:30    7.5   142    0.6   231      3.4    895.5     0.00       0     37.3
  38    1:40    7.0   144    0.0     0      0.0    895.5     0.00       0     37.3
  38    1:50    6.7   147    0.0     0      0.0    895.6     0.00       0     37.3
  38    2:00    6.2   149    0.0    38      0.4    895.6     0.00       0     37.3
  38    2:10    5.4   151    0.0     0      0.0    895.7     0.00       0     37.2
  38    2:20    5.0   153    0.0     0      0.0    895.6     0.00       0     37.2
  38    2:30    4.3   160    0.0     0      0.0    895.6     0.00       0     37.2
  38    2:40    3.8   161    0.0     0      0.0    895.8     0.00       0     37.1
  38    2:50    3.0   162    0.0     0      0.0    895.8     0.00       0     37.1
  38    3:00    2.9   163    0.0     0      0.0    895.7     0.00       0     37.1
  38    3:10    2.7   162    0.0     0      0.0    895.9     0.00       0     37.0
  38    3:20    2.1   161    0.0     0      0.0    895.9     0.00       0     37.0
  38    3:30    1.7   162    0.0     0      0.0    895.9     0.00       0     37.0
  38    3:40    1.3   162    0.0     0      0.0    895.9     0.00       0     36.9
  38    3:50    1.1   162    0.0   219      0.1    895.9     0.00       0     36.9
  38    4:00    0.8   163    0.0     0      0.0    896.0     0.00       0     36.9
  38    4:10    0.2   164    0.0   347      1.4    896.0     0.00       0     36.9
  38    4:20   -0.3   164    0.0     0      0.0    896.1     0.00       0     36.8
  38    4:30   -0.1   164    0.0   191      0.4    896.2     0.00       0     36.8
  38    4:40   -0.3   164    0.0     0      0.0    896.2     0.00       0     36.8
  38    4:50   -0.4   164    0.0     0      0.0    896.2     0.00       0     36.7
  38    5:00   -0.4   164    0.0     0      0.0    896.4     0.00       0     36.7
  38    5:10   -0.6   164    0.0     0      0.0    896.5     0.00       0     36.7
  38    5:20   -0.9   164    0.0     0      0.0    896.5     0.00       0     36.6
  38    5:30   -1.7   164    0.0     0      0.0    896.7     0.00       0     36.6
  38    5:40   -2.8   164    0.0     0      0.0    896.7     0.00       0     36.5
  38    5:50   -2.9   164    0.0     0      0.0    896.8     0.00       0     36.5
  38    6:00   -3.2   164    0.0     0      0.0    896.9     0.00       0     36.5
  38    6:10   -3.5   164    0.0     0      0.0    897.0     0.00       0     36.5
  38    6:20   -3.6   164    0.0     0      0.0    897.1     0.00       0     36.4
  38    6:30   -3.8   164    0.0     0      0.0    897.3     0.00       0     36.4
  38    6:40   -4.0   164    0.1   146      1.5    897.3     0.00       0     36.4
  38    6:50   -3.9   164    0.0     0      0.0    897.3     0.00       1     36.3
  38    7:00   -4.0   164    0.0     0      0.0    897.4     0.00       3     36.3
  38    7:10   -4.1   164    0.0     0      0.0    897.5     0.00       7     36.2
  38    7:20   -4.2   164    0.1   195      2.2    897.6     0.00      20     36.2
  38    7:30   -3.8   164    0.0     0      0.0    897.6     0.00      33     36.1
  38    7:40   -3.7   164    0.0   129      0.2    897.7     0.00      46     36.1
  38    7:50   -3.3   164    0.0     0      0.0    897.8     0.00      71     36.1
  38    8:00   -2.6   164    0.0     0      0.0    897.9     0.00     100     36.1
  38    8:10   -2.1   164    0.0     0      0.0    898.0     0.00     134     36.1
  38    8:20   -2.1   164    0.0   295      0.2    898.1     0.00     169     36.0
  38    8:30   -1.9   164    0.0   309      1.8    898.2     0.00     204     36.0
  38    8:40   -1.5   164    0.0   296      0.4    898.3     0.00     236     36.0
  38    8:50   -1.2   164    0.0     0      0.0    898.5     0.00     267     35.9
  38    9:00   -0.3   164    0.0     0      0.0    898.4     0.00     297     35.9
  38    9:10    1.0   164    0.0     0      0.0    898.5     0.00     324     35.9
  38    9:20    2.2   164    0.0     0      0.0    898.4     0.00     374     35.8
  38    9:30    4.1   164    0.0     0      0.0    898.4     0.00     397     35.8
  38    9:40    6.2   164    0.0     0      0.0    898.3     0.00     422     35.8
  38    9:50    7.6   164    0.0     0      0.0    898.4     0.00     443     35.8
  38   10:00    8.7   164    0.5   240      3.9    898.6     0.00     465     35.8
  38   10:10    9.2   164    0.9   245      3.9    898.7     0.00     487     35.7
  38   10:20    9.7   164    3.8   246      5.0    898.8     0.00     506     35.7
  38   10:30   10.6   164    3.3   250      4.8    898.8     0.00     524     35.7
  38   10:40   11.6   164    2.7   264      3.9    898.9     0.00     541     35.6
  38   10:50   12.9   163    1.5   276      4.5    898.8     0.00     552     35.6
  38   11:00   14.7   163    0.0   288      1.8    898.8     0.00     559     35.5
  38   11:10   16.3   163    0.3   303      2.6    898.7     0.00     571     35.5
  38   11:20   17.8   163    0.0   293      0.5    898.6     0.00     581     35.5
  38   11:30   19.5   163    0.0   270      0.4    898.5     0.00     590     35.4
  38   11:40   21.5   163    0.1   247      2.4    898.4     0.00     598     35.4
  38   11:50   23.0   163    0.5   245      3.8    898.3     0.00     602     35.4
  38   12:00   24.4   154    0.3   235      2.8    898.2     0.00     605     35.4
  38   12:10   25.8   144    0.0   254      0.4    898.0     0.00     607     35.4
  38   12:20   27.4   132    0.6   288      3.3    897.8     0.00     607     35.4
  38   12:30   29.2   122    0.8   290      3.9    897.7     0.00     605     35.4
  38   12:40   31.1   112    0.4   281      3.4    897.4     0.00     603     35.4
  38   12:50   32.5   100    2.0   244      5.6    897.2     0.00     598     35.4
  38   13:00   33.6    94    3.0   240      5.4    897.1     0.00     591     35.4
  38   13:10   34.8    88    2.1   248      5.1    896.9     0.00     582     35.4
  38   13:20   36.2    82    2.0   235      4.7    896.8     0.00     572     35.5
  38   13:30   38.0    77    0.3   234      3.4    896.7     0.00     560     35.5
  38   13:40   39.6    71    1.2   237      5.0    896.5     0.00     548     35.5
  38   13:50   40.2    70    1.7   238      4.9    896.5     0.00     532     35.6
  38   14:00   41.6    67    2.4   242      6.4    896.6     0.00     516     35.7
  38   14:10   42.5    64    1.7   278      4.8    896.5     0.00     499     35.7
  38   14:20   43.3    63    4.6   266     11.0    896.5     0.00     480     35.8
  38   14:30   44.2    61    6.9   278      9.3    896.5     0.00     460     35.9
  38   14:40   45.2    58    7.4   296     12.4    896.5     0.00     438     36.0
  38   14:50   46.5    57    5.8    10      8.9    896.5     0.00     415     36.0
  38   15:00   46.6    56    7.6    22     10.0    896.5     0.00     391     36.1
  38   15:10   46.6    57    8.7    32     13.2    896.7     0.00     367     36.2
  38   15:20   45.6    60    9.4    28     12.3    896.7     0.00     340     36.3
  38   15:30   45.1    60    9.2    26     12.8    896.8     0.00     313     36.5
  38   15:40   45.3    61    7.9    26     11.4    896.8     0.00     286     36.6
  38   15:50   45.4    60    7.2    23     10.2    896.8     0.00     258     36.6
  38   16:00   45.5    60    6.9    23     10.2    896.8     0.00     230     36.7
  38   16:10   46.0    59    3.7   359      7.7    896.8     0.00     202     36.8
  38   16:20   46.2    60    2.2   109      6.0    896.7     0.00     175     37.0

Return to Blowing Sand Mountains graphs page.


Western Regional Climate Center,wrcc@dri.edu